createdAt,value
2022-12-08T00:01:11.156Z,76.95
2022-12-08T00:03:38.365Z,77.26
2022-12-08T00:06:25.013Z,77.62
2022-12-08T00:09:10.571Z,77.46
2022-12-08T00:11:37.159Z,78.41
2022-12-08T00:14:03.661Z,78.36
2022-12-08T00:16:30.204Z,77.57
2022-12-08T00:18:56.763Z,77.28
2022-12-08T00:21:23.501Z,78.07
2022-12-08T00:23:49.984Z,77.87
2022-12-08T00:26:16.589Z,78.29
2022-12-08T00:28:43.356Z,77.94
2022-12-08T00:31:11.436Z,77.41
2022-12-08T00:33:38.572Z,77.22
2022-12-08T00:36:11.067Z,77.32
2022-12-08T00:38:38.737Z,77.55
2022-12-08T00:41:12.771Z,77.48
2022-12-08T00:43:39.407Z,77.29
2022-12-08T00:46:06.220Z,77.85
2022-12-08T00:48:33.752Z,78.30
2022-12-08T00:51:00.410Z,78.23
2022-12-08T00:53:26.915Z,77.47
2022-12-08T00:55:53.572Z,77.37
2022-12-08T00:58:20.079Z,77.71
2022-12-08T01:00:46.676Z,77.39
2022-12-08T01:03:13.437Z,78.05
2022-12-08T01:05:40.009Z,78.34
2022-12-08T01:08:07.562Z,77.38
2022-12-08T01:10:39.488Z,77.17
2022-12-08T01:13:05.894Z,77.73
2022-12-08T01:15:32.410Z,77.46
2022-12-08T01:17:58.955Z,77.03
2022-12-08T01:20:25.625Z,77.35
2022-12-08T01:22:52.180Z,78.44
2022-12-08T01:25:18.716Z,78.39
2022-12-08T01:27:45.248Z,77.86
2022-12-08T01:30:13.226Z,77.42
2022-12-08T01:32:39.839Z,77.60
2022-12-08T01:35:06.512Z,77.60
2022-12-08T01:37:33.490Z,78.13
2022-12-08T01:39:59.983Z,77.61
2022-12-08T01:42:26.549Z,78.58
2022-12-08T01:44:54.651Z,78.28
2022-12-08T01:47:22.954Z,77.92
2022-12-08T01:49:49.527Z,77.39
2022-12-08T01:52:37.833Z,76.92
2022-12-08T01:55:10.306Z,76.91
2022-12-08T01:57:47.244Z,76.96
2022-12-08T02:00:16.890Z,76.90
2022-12-08T02:02:59.433Z,77.38
2022-12-08T02:05:29.753Z,77.57
2022-12-08T02:07:57.822Z,77.60
2022-12-08T02:10:29.155Z,78.29
2022-12-08T02:12:58.033Z,78.48
2022-12-08T02:16:09.531Z,78.51
2022-12-08T02:19:28.916Z,77.47
2022-12-08T02:22:11.772Z,76.97
2022-12-08T02:25:00.200Z,77.53
2022-12-08T02:27:40.162Z,77.39
2022-12-08T02:30:12.423Z,77.22
2022-12-08T02:33:16.686Z,77.55
2022-12-08T02:35:49.379Z,78.93
2022-12-08T02:38:24.207Z,78.30
2022-12-08T02:41:06.036Z,78.34
2022-12-08T02:43:38.205Z,77.38
2022-12-08T02:46:24.933Z,78.12
2022-12-08T02:48:52.530Z,78.25
2022-12-08T02:51:19.719Z,77.66
2022-12-08T02:53:47.206Z,77.60
2022-12-08T02:56:46.284Z,77.14
2022-12-08T02:59:27.702Z,77.02
2022-12-08T03:02:00.992Z,76.95
2022-12-08T03:05:04.870Z,77.43
2022-12-08T03:07:53.051Z,78.15
2022-12-08T03:10:29.681Z,77.78
2022-12-08T03:13:07.680Z,77.39
2022-12-08T03:15:36.862Z,77.89
2022-12-08T03:18:05.295Z,78.83
2022-12-08T03:20:34.879Z,78.40
2022-12-08T03:23:05.880Z,78.57
2022-12-08T03:25:37.908Z,78.36
2022-12-08T03:28:05.906Z,77.41
2022-12-08T03:30:38.739Z,77.49
2022-12-08T03:33:13.856Z,77.65
2022-12-08T03:35:41.734Z,77.68
2022-12-08T03:38:14.750Z,77.30
2022-12-08T03:40:41.360Z,77.86
2022-12-08T03:43:08.110Z,77.77
2022-12-08T03:45:41.123Z,77.24
2022-12-08T03:48:12.948Z,77.25
2022-12-08T03:50:39.678Z,78.02
2022-12-08T03:53:06.202Z,78.32
2022-12-08T03:55:32.714Z,77.57
2022-12-08T03:57:59.237Z,77.33
2022-12-08T04:00:25.906Z,78.18
2022-12-08T04:02:52.430Z,77.09
2022-12-08T04:05:18.930Z,76.19
2022-12-08T04:07:45.470Z,75.46
2022-12-08T04:10:12.096Z,76.29
2022-12-08T04:12:38.702Z,77.91
2022-12-08T04:15:05.597Z,77.56
2022-12-08T04:17:32.706Z,77.38
2022-12-08T04:20:26.724Z,77.96
2022-12-08T04:23:18.134Z,77.57
2022-12-08T04:26:01.074Z,78.38
2022-12-08T04:28:48.104Z,78.16
2022-12-08T04:31:20.533Z,77.85
2022-12-08T04:33:47.241Z,77.80
2022-12-08T04:36:13.846Z,77.48
2022-12-08T04:38:40.412Z,77.78
2022-12-08T04:41:06.953Z,78.07
2022-12-08T04:43:33.518Z,78.31
2022-12-08T04:46:00.030Z,77.46
2022-12-08T04:48:26.576Z,77.19
2022-12-08T04:50:53.140Z,76.78
2022-12-08T04:53:20.073Z,77.04
2022-12-08T04:55:48.648Z,77.46
2022-12-08T04:58:18.913Z,77.35
2022-12-08T05:00:46.399Z,77.11
2022-12-08T05:03:13.891Z,77.01
2022-12-08T05:05:42.071Z,76.67
2022-12-08T05:08:09.945Z,76.85
2022-12-08T05:10:36.859Z,77.24
2022-12-08T05:13:03.368Z,77.62
2022-12-08T05:15:30.022Z,77.76
2022-12-08T05:17:56.534Z,77.45
2022-12-08T05:20:23.047Z,77.68
2022-12-08T05:22:49.590Z,78.27
2022-12-08T05:25:16.116Z,78.82
2022-12-08T05:27:43.101Z,78.38
2022-12-08T05:30:09.810Z,78.17
2022-12-08T05:32:36.482Z,77.67
2022-12-08T05:35:03.124Z,77.66
2022-12-08T05:37:29.658Z,78.21
2022-12-08T05:39:56.251Z,78.31
2022-12-08T05:42:24.901Z,77.82
2022-12-08T05:44:52.137Z,78.33
2022-12-08T05:47:18.646Z,77.73
2022-12-08T05:49:45.354Z,78.76
2022-12-08T05:52:11.900Z,78.36
2022-12-08T05:54:39.386Z,78.88
2022-12-08T05:57:05.916Z,78.51
2022-12-08T05:59:32.572Z,78.03
2022-12-08T06:01:59.209Z,77.55
2022-12-08T06:04:25.975Z,77.94
2022-12-08T06:06:52.629Z,77.38
2022-12-08T06:09:19.119Z,77.89
2022-12-08T06:11:47.099Z,78.03
2022-12-08T06:14:13.938Z,77.65
2022-12-08T06:16:40.621Z,77.59
2022-12-08T06:19:07.461Z,77.20
2022-12-08T06:21:34.142Z,76.90
2022-12-08T06:24:00.702Z,77.01
2022-12-08T06:26:27.544Z,77.67
2022-12-08T06:28:54.090Z,77.39
2022-12-08T06:31:24.623Z,77.45
2022-12-08T06:33:52.002Z,77.84
2022-12-08T06:36:20.430Z,78.13
2022-12-08T06:38:47.379Z,77.24
2022-12-08T06:41:14.559Z,77.06
2022-12-08T06:43:41.652Z,77.47
2022-12-08T06:46:11.532Z,77.16
2022-12-08T06:48:38.287Z,77.29
2022-12-08T06:51:13.324Z,76.73
2022-12-08T06:53:43.227Z,78.14
2022-12-08T06:56:10.493Z,78.54
2022-12-08T06:58:37.002Z,78.42
2022-12-08T07:01:05.865Z,77.74
2022-12-08T07:03:32.564Z,77.83
2022-12-08T07:06:03.758Z,78.28
2022-12-08T07:08:31.523Z,77.94
2022-12-08T07:10:58.080Z,78.12
2022-12-08T07:13:24.675Z,77.70
2022-12-08T07:15:51.359Z,78.20
2022-12-08T07:18:17.948Z,78.50
2022-12-08T07:20:44.502Z,77.66
2022-12-08T07:23:11.046Z,77.46
2022-12-08T07:25:37.550Z,77.37
2022-12-08T07:28:08.282Z,76.45
2022-12-08T07:30:34.822Z,77.24
2022-12-08T07:33:02.936Z,76.92
2022-12-08T07:35:29.463Z,76.72
2022-12-08T07:37:56.076Z,76.31
2022-12-08T07:40:22.788Z,76.19
2022-12-08T07:42:49.303Z,76.75
2022-12-08T07:45:15.873Z,76.67
2022-12-08T07:47:42.410Z,77.02
2022-12-08T07:50:08.955Z,76.68
2022-12-08T07:52:35.846Z,76.84
2022-12-08T07:55:02.500Z,76.66
2022-12-08T07:57:29.016Z,76.38
2022-12-08T07:59:55.519Z,76.07
2022-12-08T08:02:24.634Z,76.65
2022-12-08T08:04:52.783Z,76.31
2022-12-08T08:07:19.381Z,76.29
2022-12-08T08:09:46.002Z,76.05
2022-12-08T08:15:00.099Z,76.46
2022-12-08T08:17:26.818Z,76.21
2022-12-08T08:19:53.397Z,75.94
2022-12-08T08:22:19.894Z,75.56
2022-12-08T08:24:46.382Z,75.96
2022-12-08T08:27:13.951Z,75.77
2022-12-08T08:29:40.532Z,76.02
2022-12-08T08:32:07.165Z,76.12
2022-12-08T08:34:33.788Z,75.88
2022-12-08T08:37:00.471Z,75.50
2022-12-08T08:39:27.355Z,75.77
2022-12-08T08:41:53.898Z,75.04
2022-12-08T08:44:20.386Z,74.49
2022-12-08T08:46:47.140Z,74.41
2022-12-08T08:49:14.020Z,74.09
2022-12-08T08:51:40.645Z,74.05
2022-12-08T08:54:07.185Z,74.32
2022-12-08T08:56:33.712Z,74.96
2022-12-08T08:59:00.301Z,75.46
2022-12-08T09:01:28.104Z,75.00
2022-12-08T09:03:55.557Z,74.62
2022-12-08T09:06:23.158Z,74.96
2022-12-08T09:08:49.875Z,74.98
2022-12-08T09:11:18.643Z,75.04
2022-12-08T09:13:49.471Z,74.67
2022-12-08T09:16:17.055Z,74.49
2022-12-08T09:18:43.690Z,73.81
2022-12-08T09:21:22.383Z,74.04
2022-12-08T09:23:50.660Z,75.01
2022-12-08T09:26:17.237Z,74.41
2022-12-08T09:28:46.442Z,74.93
2022-12-08T09:31:14.835Z,74.39
2022-12-08T09:33:41.544Z,74.43
2022-12-08T09:36:08.760Z,73.89
2022-12-08T09:38:35.989Z,74.17
2022-12-08T09:41:11.203Z,74.33
2022-12-08T09:43:44.825Z,73.68
2022-12-08T09:46:15.110Z,73.74
2022-12-08T09:48:55.449Z,73.46
2022-12-08T09:51:25.531Z,72.63
2022-12-08T09:53:56.947Z,73.51
2022-12-08T09:56:27.563Z,73.49
2022-12-08T09:59:02.068Z,73.38
2022-12-08T10:01:41.970Z,72.84
2022-12-08T10:04:38.344Z,73.11
2022-12-08T10:07:23.678Z,72.28
2022-12-08T10:10:22.646Z,71.73
2022-12-08T10:13:03.496Z,72.07
2022-12-08T10:15:41.677Z,71.58
2022-12-08T10:18:20.980Z,71.50
2022-12-08T10:20:50.182Z,71.36
2022-12-08T10:23:36.608Z,71.39
2022-12-08T10:26:12.794Z,72.04
2022-12-08T10:28:44.748Z,71.46
2022-12-08T10:31:21.425Z,70.38
2022-12-08T10:33:55.190Z,70.28
2022-12-08T10:36:21.757Z,70.55
2022-12-08T10:38:48.240Z,71.37
2022-12-08T10:41:18.075Z,71.22
2022-12-08T10:43:48.605Z,70.88
2022-12-08T10:46:27.045Z,69.42
2022-12-08T10:49:13.038Z,68.61
2022-12-08T10:51:41.892Z,68.31
2022-12-08T10:54:28.881Z,68.02
2022-12-08T10:56:57.107Z,65.03
2022-12-08T10:59:25.617Z,67.70
2022-12-08T11:01:55.052Z,67.51
2022-12-08T11:04:39.535Z,67.79
2022-12-08T11:07:08.555Z,66.94
2022-12-08T11:09:50.726Z,68.47
2022-12-08T11:12:19.384Z,66.82
2022-12-08T11:14:45.906Z,65.68
2022-12-08T11:17:26.997Z,66.58
2022-12-08T11:20:08.976Z,65.37
2022-12-08T11:22:43.671Z,66.52
2022-12-08T11:25:16.404Z,66.85
2022-12-08T11:27:46.283Z,66.87
2022-12-08T11:30:21.436Z,66.43
2022-12-08T11:32:56.115Z,66.42
2022-12-08T11:35:28.487Z,65.05
2022-12-08T11:38:27.950Z,66.43
2022-12-08T11:41:03.400Z,66.52
2022-12-08T11:43:40.791Z,66.35
2022-12-08T11:46:20.152Z,66.33
2022-12-08T11:48:50.526Z,66.08
2022-12-08T11:51:32.128Z,65.50
2022-12-08T11:54:32.183Z,65.79
2022-12-08T11:57:01.839Z,66.17
2022-12-08T11:59:41.663Z,65.81
2022-12-08T12:02:15.939Z,64.73
2022-12-08T12:05:02.957Z,63.33
2022-12-08T12:07:59.506Z,64.89
2022-12-08T12:10:32.400Z,63.97
2022-12-08T12:13:19.940Z,64.16
2022-12-08T12:15:49.690Z,64.75
2022-12-08T12:18:31.202Z,63.57
2022-12-08T12:21:19.198Z,64.40
2022-12-08T12:23:52.975Z,64.47
2022-12-08T12:26:23.512Z,64.74
2022-12-08T12:29:14.688Z,64.05
2022-12-08T12:31:47.234Z,64.04
2022-12-08T12:34:50.921Z,63.87
2022-12-08T12:37:22.067Z,62.62
2022-12-08T12:40:11.952Z,63.28
2022-12-08T12:42:46.599Z,62.87
2022-12-08T12:45:16.262Z,64.06
2022-12-08T12:47:54.315Z,64.13
2022-12-08T12:50:34.933Z,63.71
2022-12-08T12:53:09.144Z,64.89
2022-12-08T12:55:55.834Z,64.84
2022-12-08T12:58:35.740Z,64.70
2022-12-08T13:01:14.120Z,62.98
2022-12-08T13:03:47.396Z,64.41
2022-12-08T13:06:21.516Z,65.00
2022-12-08T13:08:55.129Z,64.79
2022-12-08T13:11:23.251Z,64.06
2022-12-08T13:14:03.607Z,64.14
2022-12-08T13:16:37.581Z,64.78
2022-12-08T13:19:12.566Z,63.65
2022-12-08T13:21:39.915Z,64.34
2022-12-08T13:24:26.888Z,64.38
2022-12-08T13:27:13.594Z,64.13
2022-12-08T13:29:40.419Z,64.55
2022-12-08T13:32:06.851Z,64.56
2022-12-08T13:34:52.998Z,64.08
2022-12-08T13:37:29.471Z,64.26
2022-12-08T13:40:07.529Z,64.29
2022-12-08T13:42:43.160Z,63.42
2022-12-08T13:45:33.509Z,64.56
2022-12-08T13:48:41.672Z,64.58
2022-12-08T13:57:25.879Z,64.04
2022-12-08T13:59:52.497Z,64.08
2022-12-08T14:02:49.067Z,64.23
2022-12-08T14:05:34.622Z,64.43
2022-12-08T14:08:58.001Z,65.34
2022-12-08T14:11:38.012Z,64.98
2022-12-08T14:14:13.041Z,64.43
2022-12-08T14:16:43.521Z,65.49
2022-12-08T14:19:22.788Z,65.08
2022-12-08T14:21:59.608Z,65.11
2022-12-08T14:24:28.547Z,66.02
2022-12-08T14:26:59.434Z,66.15
2022-12-08T14:29:41.622Z,65.21
2022-12-08T14:32:34.130Z,64.91
2022-12-08T14:35:06.529Z,65.14
2022-12-08T14:37:47.333Z,65.78
2022-12-08T14:40:23.142Z,65.87
2022-12-08T14:43:07.925Z,64.96
2022-12-08T14:45:40.521Z,64.78
2022-12-08T14:48:39.096Z,64.69
2022-12-08T14:51:21.234Z,65.16
2022-12-08T14:54:01.053Z,66.46
2022-12-08T14:56:38.030Z,68.10
2022-12-08T14:59:17.581Z,68.30
2022-12-08T15:01:45.581Z,68.67
2022-12-08T15:04:12.082Z,67.95
2022-12-08T15:06:54.259Z,67.50
2022-12-08T15:09:40.974Z,66.89
2022-12-08T15:12:13.700Z,67.96
2022-12-08T15:14:58.146Z,69.29
2022-12-08T15:17:40.023Z,70.40
2022-12-08T15:20:07.591Z,69.63
2022-12-08T15:22:34.407Z,69.45
2022-12-08T15:25:00.895Z,68.83
2022-12-08T15:27:27.589Z,68.12
2022-12-08T15:29:54.170Z,68.51
2022-12-08T15:32:22.820Z,68.64
2022-12-08T15:34:50.250Z,69.08
2022-12-08T15:37:22.912Z,69.74
2022-12-08T15:39:49.861Z,70.06
2022-12-08T15:42:16.848Z,69.60
2022-12-08T15:44:43.710Z,69.07
2022-12-08T15:47:19.080Z,68.61
2022-12-08T15:49:46.584Z,68.46
2022-12-08T15:52:15.543Z,68.65
2022-12-08T15:54:42.276Z,68.85
2022-12-08T15:57:53.076Z,69.08
2022-12-08T16:04:09.343Z,69.32
2022-12-08T16:09:12.708Z,68.55
2022-12-08T16:12:08.550Z,69.01
2022-12-08T16:17:22.774Z,70.77
2022-12-08T16:19:49.526Z,71.12
2022-12-08T16:25:18.353Z,71.58
2022-12-08T16:30:34.160Z,70.96
2022-12-08T16:33:00.912Z,71.18
2022-12-08T16:35:27.412Z,71.22
2022-12-08T16:37:54.021Z,71.16
2022-12-08T16:40:20.941Z,70.27
2022-12-08T16:42:49.749Z,70.27
2022-12-08T16:45:22.295Z,70.19
2022-12-08T16:47:52.309Z,70.51
2022-12-08T16:50:23.574Z,71.91
2022-12-08T16:52:55.488Z,71.68
2022-12-08T16:55:22.011Z,71.33
2022-12-08T16:57:48.622Z,70.83
2022-12-08T17:00:19.267Z,70.59
2022-12-08T17:02:46.236Z,70.03
2022-12-08T17:05:15.042Z,71.64
2022-12-08T17:07:43.258Z,72.14
2022-12-08T17:10:12.530Z,72.72
2022-12-08T17:12:39.316Z,73.14
2022-12-08T17:15:08.758Z,71.88
2022-12-08T17:17:35.878Z,72.05
2022-12-08T17:20:07.025Z,71.34
2022-12-08T17:22:35.061Z,71.05
2022-12-08T17:25:02.307Z,71.76
2022-12-08T17:27:29.000Z,71.47
2022-12-08T17:29:55.512Z,71.88
2022-12-08T17:32:22.149Z,71.86
2022-12-08T17:34:48.933Z,71.11
2022-12-08T17:37:15.516Z,70.92
2022-12-08T17:39:42.074Z,70.71
2022-12-08T17:42:08.938Z,71.04
2022-12-08T17:44:35.643Z,71.43
2022-12-08T17:47:03.979Z,71.09
2022-12-08T17:49:32.765Z,71.19
2022-12-08T17:52:01.723Z,71.72
2022-12-08T17:54:29.131Z,71.81
2022-12-08T17:56:59.441Z,72.23
2022-12-08T17:59:28.078Z,71.85
2022-12-08T18:01:56.548Z,72.08
2022-12-08T18:04:24.382Z,71.63
2022-12-08T18:06:51.107Z,71.51
2022-12-08T18:09:17.917Z,71.90
2022-12-08T18:11:46.411Z,71.97
2022-12-08T18:14:14.547Z,72.38
2022-12-08T18:16:44.102Z,72.79
2022-12-08T18:19:12.025Z,72.59
2022-12-08T18:21:38.883Z,73.24
2022-12-08T18:24:08.119Z,72.96
2022-12-08T18:26:35.143Z,72.58
2022-12-08T18:29:01.939Z,72.20
2022-12-08T18:31:28.632Z,72.61
2022-12-08T18:33:55.205Z,73.59
2022-12-08T18:36:25.084Z,74.25
2022-12-08T18:38:52.867Z,74.10
2022-12-08T18:41:24.551Z,75.08
2022-12-08T18:43:52.007Z,75.64
2022-12-08T18:46:18.692Z,74.61
2022-12-08T18:48:47.707Z,73.98
2022-12-08T18:51:19.626Z,73.67
2022-12-08T18:53:46.880Z,74.13
2022-12-08T18:56:27.717Z,75.08
2022-12-08T18:59:03.164Z,75.13
2022-12-08T19:01:31.844Z,74.48
2022-12-08T19:04:27.526Z,73.90
2022-12-08T19:06:52.680Z,73.66
2022-12-08T19:09:19.981Z,73.66
2022-12-08T19:11:46.777Z,73.70
2022-12-08T19:14:14.845Z,73.61
2022-12-08T19:16:41.466Z,74.49
2022-12-08T19:19:07.952Z,74.69
2022-12-08T19:21:34.506Z,74.88
2022-12-08T19:24:01.671Z,75.29
2022-12-08T19:26:28.633Z,75.26
2022-12-08T19:28:55.576Z,74.76
2022-12-08T19:31:22.184Z,74.50
2022-12-08T19:33:48.736Z,74.91
2022-12-08T19:36:18.279Z,74.72
2022-12-08T19:39:04.241Z,74.81
2022-12-08T19:41:50.237Z,74.78
2022-12-08T19:44:41.971Z,74.99
2022-12-08T19:47:09.027Z,75.65
2022-12-08T19:49:35.840Z,75.18
2022-12-08T19:52:02.593Z,75.03
2022-12-08T19:54:29.199Z,75.48
2022-12-08T19:56:55.868Z,77.30
2022-12-08T19:59:26.104Z,76.16
2022-12-08T20:01:58.741Z,75.63
2022-12-08T20:04:26.939Z,75.59
2022-12-08T20:06:55.299Z,75.43
2022-12-08T20:09:22.690Z,75.34
2022-12-08T20:11:50.744Z,75.20
2022-12-08T20:14:18.398Z,75.64
2022-12-08T20:16:45.196Z,75.82
2022-12-08T20:19:11.932Z,76.11
2022-12-08T20:21:39.645Z,75.46
2022-12-08T20:24:06.856Z,75.07
2022-12-08T20:26:33.490Z,76.40
2022-12-08T20:29:00.336Z,76.01
2022-12-08T20:31:29.734Z,75.88
2022-12-08T20:33:56.345Z,76.01
2022-12-08T20:36:23.339Z,76.09
2022-12-08T20:38:52.242Z,76.69
2022-12-08T20:41:20.479Z,76.45
2022-12-08T20:43:48.032Z,75.90
2022-12-08T20:46:16.476Z,75.45
2022-12-08T20:48:44.152Z,75.43
2022-12-08T20:51:18.437Z,75.28
2022-12-08T20:53:45.719Z,76.46
2022-12-08T20:56:18.267Z,76.89
2022-12-08T20:58:45.532Z,76.81
2022-12-08T21:01:16.051Z,76.91
2022-12-08T21:03:44.518Z,76.22
2022-12-08T21:06:11.855Z,75.47
2022-12-08T21:08:39.767Z,75.51
2022-12-08T21:11:07.964Z,76.14
2022-12-08T21:13:36.724Z,76.75
2022-12-08T21:16:03.473Z,76.01
2022-12-08T21:18:34.417Z,75.82
2022-12-08T21:21:06.926Z,75.92
2022-12-08T21:23:34.427Z,76.08
2022-12-08T21:26:01.200Z,76.25
2022-12-08T21:28:27.997Z,76.46
2022-12-08T21:30:54.644Z,76.86
2022-12-08T21:33:21.238Z,76.24
2022-12-08T21:35:48.157Z,76.27
2022-12-08T21:38:17.137Z,76.89
2022-12-08T21:40:44.247Z,76.32
2022-12-08T21:43:11.906Z,76.44
2022-12-08T21:45:38.415Z,76.39
2022-12-08T21:48:11.645Z,76.96
2022-12-08T21:50:38.719Z,77.49
2022-12-08T21:53:05.286Z,76.82
2022-12-08T21:55:31.905Z,76.33
2022-12-08T21:58:01.021Z,75.90
2022-12-08T22:00:28.065Z,76.36
2022-12-08T22:02:55.110Z,76.85
2022-12-08T22:05:21.714Z,77.02
2022-12-08T22:07:48.494Z,76.12
2022-12-08T22:10:15.393Z,75.74
2022-12-08T22:12:42.120Z,75.69
2022-12-08T22:15:10.294Z,75.95
2022-12-08T22:17:39.019Z,76.27
2022-12-08T22:20:08.000Z,76.36
2022-12-08T22:22:35.358Z,75.86
2022-12-08T22:25:03.541Z,75.35
2022-12-08T22:27:30.510Z,75.30
2022-12-08T22:29:57.175Z,75.12
2022-12-08T22:32:24.025Z,74.99
2022-12-08T22:34:51.042Z,74.73
2022-12-08T22:37:17.825Z,74.83
2022-12-08T22:39:44.542Z,75.31
2022-12-08T22:42:11.244Z,75.29
2022-12-08T22:44:38.071Z,75.86
2022-12-08T22:47:05.046Z,76.34
2022-12-08T22:49:31.809Z,76.46
2022-12-08T22:51:58.960Z,75.93
2022-12-08T22:54:26.722Z,75.54
2022-12-08T22:56:53.469Z,75.01
2022-12-08T22:59:20.024Z,75.64
2022-12-08T23:01:46.671Z,76.58
2022-12-08T23:04:17.749Z,76.52
2022-12-08T23:06:44.787Z,76.52
2022-12-08T23:09:11.991Z,76.13
2022-12-08T23:11:38.723Z,75.66
2022-12-08T23:14:05.296Z,75.33
2022-12-08T23:16:33.490Z,76.18
2022-12-08T23:19:00.317Z,75.75
2022-12-08T23:21:27.222Z,74.85
2022-12-08T23:23:53.979Z,74.33
2022-12-08T23:26:21.960Z,75.60
2022-12-08T23:28:49.560Z,75.96
2022-12-08T23:31:17.395Z,75.13
2022-12-08T23:33:44.844Z,75.45
2022-12-08T23:36:12.447Z,76.57
2022-12-08T23:38:39.423Z,76.58
2022-12-08T23:41:08.595Z,75.67
2022-12-08T23:43:36.090Z,75.42
2022-12-08T23:46:03.672Z,76.70
2022-12-08T23:48:34.321Z,76.07
2022-12-08T23:51:01.979Z,75.47
2022-12-08T23:53:29.963Z,75.17
2022-12-08T23:56:05.725Z,75.96
2022-12-08T23:58:32.847Z,76.04
